Time;durP1;ratioP1;P1;durP2;ratioP2;P2;SDS_P1;SDS_P2;PMS_P1;PMS_P2;Temp;Humidity;BMP_temperature;BMP_pressure;BME280_temperature;BME280_humidity;BME280_pressure;Samples;Min_cycle;Max_cycle;Signal;HPM_P1;HPM_P2
2022/09/11 00:01:35;;;;;;;;;;;;;;;21.93;30.23;97492.50;5001440;28;1906;-78
2022/09/11 00:04:00;;;;;;;;;;;;;;;21.94;30.42;97488.41;5019121;28;903;-77
2022/09/11 00:06:26;;;;;;;;;;;;;;;21.84;30.13;97491.16;5017745;28;1103;-77
2022/09/11 00:08:52;;;;;;;;;;;;;;;21.81;29.97;97483.59;5019960;28;858;-78
2022/09/11 00:11:19;;;;;;;;;;;;;;;21.67;30.18;97486.91;4977262;28;957;-77
2022/09/11 00:13:46;;;;;;;;;;;;;;;21.67;30.11;97492.59;4961175;28;941;-77
2022/09/11 00:16:19;;;;;;;;;;;;;;;21.92;29.66;97499.41;4977511;28;921;-77
2022/09/11 00:18:45;;;;;;;;;;;;;;;21.79;29.91;97494.56;4961455;28;901;-77
2022/09/11 00:21:11;;;;;;;;;;;;;;;21.78;29.68;97495.03;4977215;28;1914;-77
2022/09/11 00:23:36;;;;;;;;;;;;;;;21.73;29.49;97490.75;4977187;28;1084;-78
2022/09/11 00:26:02;;;;;;;;;;;;;;;22.02;29.77;97501.03;4977158;28;838;-77
2022/09/11 00:28:28;;;;;;;;;;;;;;;22.39;28.77;97507.03;4977197;28;951;-77
2022/09/11 00:31:00;;;;;;;;;;;;;;;22.34;28.78;97506.38;4960885;28;1031;-78
2022/09/11 00:33:26;;;;;;;;;;;;;;;22.25;28.62;97508.34;4976993;28;998;-77
2022/09/11 00:36:02;;;;;;;;;;;;;;;22.07;29.03;97506.13;4945148;28;1164;-77
2022/09/11 00:38:28;;;;;;;;;;;;;;;21.76;29.66;97506.84;4961166;28;994;-77
2022/09/11 00:40:54;;;;;;;;;;;;;;;21.71;29.43;97504.59;4958624;28;1918;-77
2022/09/11 00:43:20;;;;;;;;;;;;;;;21.81;29.12;97496.94;4957752;29;1188;-77
2022/09/11 00:45:48;;;;;;;;;;;;;;;21.76;29.41;97506.84;4957356;29;979;-77
2022/09/11 00:48:15;;;;;;;;;;;;;;;21.77;29.14;97508.41;4957266;28;1110;-77
2022/09/11 00:50:40;;;;;;;;;;;;;;;21.69;29.18;97498.56;5000356;28;1061;-78
2022/09/11 00:53:06;;;;;;;;;;;;;;;21.83;29.02;97500.91;5000905;28;862;-78
2022/09/11 00:55:34;;;;;;;;;;;;;;;22.08;29.13;97496.38;5000620;28;1022;-78
2022/09/11 00:58:09;;;;;;;;;;;;;;;22.37;28.43;97498.97;5000506;28;919;-77
2022/09/11 01:00:38;;;;;;;;;;;;;;;22.32;28.27;97494.69;5016219;28;1992;-78
2022/09/11 01:03:03;;;;;;;;;;;;;;;22.04;28.74;97488.00;5017794;28;856;-77
2022/09/11 01:05:33;;;;;;;;;;;;;;;21.84;28.99;97499.66;4984315;28;1106;-78
2022/09/11 01:07:59;;;;;;;;;;;;;;;21.87;29.03;97500.00;5000066;28;1286;-77
2022/09/11 01:10:43;;;;;;;;;;;;;;;21.90;28.91;97493.41;4984543;28;1105;-77
2022/09/11 01:13:09;;;;;;;;;;;;;;;21.73;29.54;97495.63;5000062;28;1322;-77
2022/09/11 01:15:43;;;;;;;;;;;;;;;21.84;28.89;97491.16;5017329;28;964;-77
2022/09/11 01:18:09;;;;;;;;;;;;;;;21.87;29.29;97491.50;4999936;28;934;-77
2022/09/11 01:20:35;;;;;;;;;;;;;;;21.72;29.13;97483.50;5017489;28;1969;-77
2022/09/11 01:23:09;;;;;;;;;;;;;;;21.70;29.46;97488.03;5017011;28;940;-77
2022/09/11 01:25:57;;;;;;;;;;;;;;;21.59;29.55;97479.91;5016574;28;1166;-77
2022/09/11 01:28:36;;;;;;;;;;;;;;;22.29;29.33;97470.13;4983958;28;1135;-78
2022/09/11 01:31:04;;;;;;;;;;;;;;;22.31;28.88;97478.16;4983873;28;1285;-79
2022/09/11 01:33:36;;;;;;;;;;;;;;;21.89;29.79;97477.66;4999668;28;1103;-77
2022/09/11 01:36:02;;;;;;;;;;;;;;;21.93;30.21;97464.16;5000068;28;916;-78
2022/09/11 01:38:50;;;;;;;;;;;;;;;21.76;30.46;97467.19;4999452;28;900;-78
2022/09/11 01:41:18;;;;;;;;;;;;;;;21.82;30.45;97461.72;4999605;28;1918;-77
2022/09/11 01:43:53;;;;;;;;;;;;;;;21.94;30.37;97466.53;5000412;28;982;-77
2022/09/11 01:46:21;;;;;;;;;;;;;;;21.71;30.79;97470.59;4999895;28;1153;-77
2022/09/11 01:48:49;;;;;;;;;;;;;;;21.84;30.99;97474.16;4983701;28;1308;-77
2022/09/11 01:51:20;;;;;;;;;;;;;;;21.80;30.83;97462.16;4988879;28;1210;-77
2022/09/11 01:53:46;;;;;;;;;;;;;;;21.95;31.01;97461.66;4997696;28;965;-77
2022/09/11 01:56:19;;;;;;;;;;;;;;;22.40;30.51;97468.94;4980430;28;908;-77
2022/09/11 01:58:46;;;;;;;;;;;;;;;22.27;30.60;97464.09;4940383;29;1260;-77
2022/09/11 02:01:15;;;;;;;;;;;;;;;22.15;30.59;97467.03;4956255;29;1910;-77
2022/09/11 02:03:42;;;;;;;;;;;;;;;21.99;30.92;97474.44;4940442;29;1255;-77
2022/09/11 02:06:09;;;;;;;;;;;;;;;21.96;30.97;97469.69;4940589;29;946;-77
2022/09/11 02:08:45;;;;;;;;;;;;;;;21.80;31.12;97462.16;4956338;29;981;-78
2022/09/11 02:11:15;;;;;;;;;;;;;;;21.62;31.09;97450.69;4925115;29;1440;-77
2022/09/11 02:13:48;;;;;;;;;;;;;;;21.72;30.85;97449.53;4956431;28;1185;-78
2022/09/11 02:16:18;;;;;;;;;;;;;;;21.79;30.94;97463.41;4937382;29;1140;-78
2022/09/11 02:18:47;;;;;;;;;;;;;;;21.77;30.61;97462.31;4921528;29;1097;-77
2022/09/11 02:21:13;;;;;;;;;;;;;;;21.64;30.81;97464.38;4936887;29;1922;-78
2022/09/11 02:23:38;;;;;;;;;;;;;;;21.70;30.59;97457.66;4898858;29;938;-77
2022/09/11 02:26:04;;;;;;;;;;;;;;;21.75;30.55;97456.28;4899327;29;946;-78
2022/09/11 02:28:30;;;;;;;;;;;;;;;21.80;30.46;97452.88;4898999;29;1137;-77
2022/09/11 02:30:55;;;;;;;;;;;;;;;21.83;30.80;97455.59;4883486;29;1419;-77
2022/09/11 02:33:27;;;;;;;;;;;;;;;22.15;30.81;97459.31;4899138;29;1129;-77
2022/09/11 02:35:55;;;;;;;;;;;;;;;22.25;30.79;97457.34;4920074;29;1287;-77
2022/09/11 02:38:23;;;;;;;;;;;;;;;22.15;30.29;97447.97;4906164;29;1250;-78
2022/09/11 02:40:54;;;;;;;;;;;;;;;22.17;30.15;97448.28;4905600;29;2089;-78
2022/09/11 02:43:25;;;;;;;;;;;;;;;21.77;30.81;97440.44;4905890;29;1243;-77
2022/09/11 02:45:54;;;;;;;;;;;;;;;21.84;30.72;97437.34;4921862;29;1118;-78
2022/09/11 02:48:26;;;;;;;;;;;;;;;21.80;30.86;97439.50;4921338;29;1692;-78
2022/09/11 02:51:14;;;;;;;;;;;;;;;21.82;30.51;97447.56;4928961;29;1252;-77
2022/09/11 02:53:48;;;;;;;;;;;;;;;21.71;30.45;97441.47;4915670;29;1034;-77
2022/09/11 02:56:16;;;;;;;;;;;;;;;21.72;30.16;97449.53;4943844;29;1216;-77
2022/09/11 02:59:11;;;;;;;;;;;;;;;21.71;30.28;97447.94;4943267;29;1053;-78
2022/09/11 03:01:47;;;;;;;;;;;;;;;21.56;30.25;97453.31;4905330;29;1984;-77
2022/09/11 03:04:14;;;;;;;;;;;;;;;21.63;30.22;97463.59;4905570;29;1243;-78
2022/09/11 03:06:42;;;;;;;;;;;;;;;21.83;29.83;97455.59;4921379;29;973;-77
2022/09/11 03:09:08;;;;;;;;;;;;;;;21.85;29.48;97470.06;4921222;29;1029;-77
2022/09/11 03:11:34;;;;;;;;;;;;;;;21.57;29.91;97473.94;4902061;29;1070;-77
2022/09/11 03:14:00;;;;;;;;;;;;;;;21.81;30.25;97479.94;4902073;29;1045;-77
2022/09/11 03:16:26;;;;;;;;;;;;;;;22.35;29.36;97475.97;4902168;29;1358;-77
2022/09/11 03:18:51;;;;;;;;;;;;;;;22.33;29.14;97475.66;4902030;29;1308;-77
2022/09/11 03:21:17;;;;;;;;;;;;;;;22.20;29.29;97472.88;4901954;29;1903;-77
2022/09/11 03:23:42;;;;;;;;;;;;;;;22.07;29.23;97475.78;4902059;29;1098;-78
2022/09/11 03:26:08;;;;;;;;;;;;;;;21.90;29.85;97484.91;4902108;29;1130;-78
2022/09/11 03:28:34;;;;;;;;;;;;;;;21.85;29.77;97474.94;4902115;29;1220;-77
2022/09/11 03:31:05;;;;;;;;;;;;;;;21.81;29.40;97480.75;4914103;29;976;-77
2022/09/11 03:33:30;;;;;;;;;;;;;;;21.87;29.38;97489.47;4937991;29;1001;-78
2022/09/11 03:35:56;;;;;;;;;;;;;;;21.88;29.33;97485.38;4943059;29;1103;-78
2022/09/11 03:38:21;;;;;;;;;;;;;;;21.82;29.17;97492.88;4955464;28;1329;-78
2022/09/11 03:40:47;;;;;;;;;;;;;;;21.71;29.22;97493.25;4978111;28;1979;-78
2022/09/11 03:43:12;;;;;;;;;;;;;;;21.92;28.83;97491.69;4992865;28;940;-77
2022/09/11 03:45:38;;;;;;;;;;;;;;;21.80;28.96;97493.31;5001237;28;936;-78
2022/09/11 03:48:05;;;;;;;;;;;;;;;21.76;29.26;97497.50;5002148;28;802;-78
2022/09/11 03:50:30;;;;;;;;;;;;;;;21.77;28.99;97484.97;5019352;28;1060;-78
2022/09/11 03:52:56;;;;;;;;;;;;;;;21.71;29.20;97493.25;5018632;28;1118;-77
2022/09/11 03:55:22;;;;;;;;;;;;;;;21.55;29.15;97484.91;5002150;28;1150;-77
2022/09/11 03:57:48;;;;;;;;;;;;;;;21.59;28.88;97483.53;4985154;28;1155;-77
2022/09/11 04:00:14;;;;;;;;;;;;;;;21.66;29.00;97488.19;5018532;28;1918;-77
2022/09/11 04:02:54;;;;;;;;;;;;;;;22.26;28.61;97488.03;5018134;28;1264;-77
2022/09/11 04:05:43;;;;;;;;;;;;;;;22.43;28.08;97490.66;5017770;28;1167;-78
2022/09/11 04:08:12;;;;;;;;;;;;;;;22.07;28.49;97480.63;5001409;28;1086;-77
2022/09/11 04:10:39;;;;;;;;;;;;;;;21.84;29.05;97474.16;5001632;28;1156;-77
2022/09/11 04:13:07;;;;;;;;;;;;;;;21.77;29.11;97480.09;5017809;28;1151;-77
2022/09/11 04:15:32;;;;;;;;;;;;;;;21.80;28.77;97470.66;5018518;28;858;-77
2022/09/11 04:17:58;;;;;;;;;;;;;;;21.82;28.92;97482.34;5017647;28;1142;-77
2022/09/11 04:20:24;;;;;;;;;;;;;;;21.71;28.97;97476.25;5003216;28;1919;-78
2022/09/11 04:22:49;;;;;;;;;;;;;;;21.64;29.34;97475.72;5035936;28;861;-77
2022/09/11 04:25:15;;;;;;;;;;;;;;;21.50;29.42;97482.66;5019609;28;907;-78
2022/09/11 04:27:41;;;;;;;;;;;;;;;21.74;29.09;97481.00;5035862;28;1099;-77
2022/09/11 04:30:10;;;;;;;;;;;;;;;21.73;29.35;97479.41;5019980;28;1092;-78
2022/09/11 04:32:35;;;;;;;;;;;;;;;22.35;28.36;97490.94;5003189;28;1117;-78
2022/09/11 04:35:02;;;;;;;;;;;;;;;22.55;27.98;97492.63;5035978;28;924;-78
2022/09/11 04:37:34;;;;;;;;;;;;;;;22.58;28.21;97497.38;5019285;28;1127;-77
2022/09/11 04:40:00;;;;;;;;;;;;;;;22.36;28.46;97497.41;5035414;28;1985;-78
2022/09/11 04:42:27;;;;;;;;;;;;;;;22.03;28.99;97492.09;5035717;28;1205;-78
2022/09/11 04:44:53;;;;;;;;;;;;;;;22.12;28.69;97494.22;5018949;28;1121;-78
2022/09/11 04:47:19;;;;;;;;;;;;;;;21.97;28.92;97490.31;5035862;28;819;-78
2022/09/11 04:49:45;;;;;;;;;;;;;;;21.99;28.87;97490.66;5019137;28;1143;-78
2022/09/11 04:52:11;;;;;;;;;;;;;;;21.86;29.24;97493.50;5003496;28;1092;-78
2022/09/11 04:54:37;;;;;;;;;;;;;;;21.76;29.42;97495.50;5016814;28;1361;-78
2022/09/11 04:57:07;;;;;;;;;;;;;;;21.84;28.93;97496.03;5016338;28;1251;-78
2022/09/11 04:59:34;;;;;;;;;;;;;;;21.90;28.93;97487.72;5016505;28;1985;-78
2022/09/11 05:02:06;;;;;;;;;;;;;;;21.92;28.83;97491.69;4968831;28;1153;-78
2022/09/11 05:04:36;;;;;;;;;;;;;;;21.85;28.95;97495.56;5000290;28;1124;-78
2022/09/11 05:07:01;;;;;;;;;;;;;;;21.75;29.34;97493.91;5016833;28;1110;-77
2022/09/11 05:09:27;;;;;;;;;;;;;;;21.79;28.97;97496.63;5016655;28;1272;-77
2022/09/11 05:11:53;;;;;;;;;;;;;;;21.77;29.07;97491.41;5016632;28;1590;-77
2022/09/11 05:14:21;;;;;;;;;;;;;;;21.94;28.86;97494.06;5015290;28;1255;-77
2022/09/11 05:16:51;;;;;;;;;;;;;;;22.34;28.14;97495.03;4998972;28;1167;-77
2022/09/11 05:19:17;;;;;;;;;;;;;;;22.24;28.25;97493.38;5015400;28;1106;-77
2022/09/11 05:21:44;;;;;;;;;;;;;;;21.95;28.78;97489.97;5015585;28;1981;-77
2022/09/11 05:24:10;;;;;;;;;;;;;;;21.87;29.02;97495.13;5015416;28;926;-77
2022/09/11 05:26:36;;;;;;;;;;;;;;;21.84;29.17;97490.38;5015139;28;1136;-77
2022/09/11 05:29:06;;;;;;;;;;;;;;;21.70;29.55;97485.97;4998895;28;1238;-77
2022/09/11 05:31:36;;;;;;;;;;;;;;;21.88;28.94;97490.25;4940429;29;1427;-78
2022/09/11 05:34:02;;;;;;;;;;;;;;;21.71;29.16;97481.94;4940746;29;1152;-77
2022/09/11 05:36:29;;;;;;;;;;;;;;;21.82;29.00;97488.00;4940724;29;1130;-77
2022/09/11 05:38:56;;;;;;;;;;;;;;;21.72;29.21;97477.84;4941187;29;1056;-77
2022/09/11 05:41:21;;;;;;;;;;;;;;;21.71;29.29;97476.25;4924871;29;1972;-77
2022/09/11 05:43:47;;;;;;;;;;;;;;;21.91;29.55;97478.75;4924765;29;1089;-77
2022/09/11 05:46:16;;;;;;;;;;;;;;;22.28;28.68;97479.09;4925030;29;1614;-77
2022/09/11 05:48:43;;;;;;;;;;;;;;;22.38;28.59;97486.38;4940870;29;1145;-77
2022/09/11 05:51:11;;;;;;;;;;;;;;;22.21;28.63;97485.00;4940605;29;1248;-77
2022/09/11 05:53:37;;;;;;;;;;;;;;;21.92;29.30;97485.25;4956474;29;993;-77
2022/09/11 05:56:07;;;;;;;;;;;;;;;21.94;29.48;97483.53;4956606;29;1124;-78
2022/09/11 05:58:33;;;;;;;;;;;;;;;21.74;29.81;97485.88;4940653;29;1355;-78
2022/09/11 06:01:17;;;;;;;;;;;;;;;21.85;29.89;97487.06;4940461;29;1903;-77
2022/09/11 06:03:48;;;;;;;;;;;;;;;21.78;29.82;97481.66;4984269;28;1248;-77
2022/09/11 06:06:14;;;;;;;;;;;;;;;21.94;29.89;97485.56;5015977;28;1316;-77
2022/09/11 06:08:46;;;;;;;;;;;;;;;22.36;29.10;97486.84;5017334;28;893;-77
2022/09/11 06:11:12;;;;;;;;;;;;;;;22.22;29.43;97487.38;5020933;28;932;-78
2022/09/11 06:13:39;;;;;;;;;;;;;;;21.96;29.94;97485.88;4987434;28;1128;-78
2022/09/11 06:16:12;;;;;;;;;;;;;;;21.94;29.65;97489.19;5003677;28;1262;-77
2022/09/11 06:18:38;;;;;;;;;;;;;;;21.75;30.16;97482.56;5019761;28;1227;-77
2022/09/11 06:21:06;;;;;;;;;;;;;;;21.81;30.14;97479.94;5002314;28;1914;-77
2022/09/11 06:23:39;;;;;;;;;;;;;;;21.78;29.87;97475.22;5019508;28;1258;-77
2022/09/11 06:26:07;;;;;;;;;;;;;;;21.82;29.77;97484.38;5019766;28;1218;-78
2022/09/11 06:28:35;;;;;;;;;;;;;;;21.59;30.54;97485.56;5003940;28;1123;-78
2022/09/11 06:31:02;;;;;;;;;;;;;;;21.61;30.21;97485.94;5003092;28;1248;-78
2022/09/11 06:33:35;;;;;;;;;;;;;;;21.71;30.21;97487.59;5002761;28;1363;-77
2022/09/11 06:36:02;;;;;;;;;;;;;;;21.73;30.21;97496.41;5002957;28;1116;-77
2022/09/11 06:38:28;;;;;;;;;;;;;;;21.58;30.36;97496.09;5003019;28;1188;-76
2022/09/11 06:40:54;;;;;;;;;;;;;;;21.71;30.04;97493.25;5019499;28;1914;-76
2022/09/11 06:43:20;;;;;;;;;;;;;;;21.72;30.01;97489.16;5020334;28;802;-76
2022/09/11 06:45:50;;;;;;;;;;;;;;;21.78;30.52;97493.00;5019311;28;1244;-77
2022/09/11 06:48:16;;;;;;;;;;;;;;;22.18;30.19;97497.28;5019002;28;1426;-77
2022/09/11 06:50:41;;;;;;;;;;;;;;;22.39;29.55;97502.16;5020501;28;993;-77
2022/09/11 06:53:07;;;;;;;;;;;;;;;22.06;29.90;97504.53;5019544;28;1092;-77
2022/09/11 06:55:35;;;;;;;;;;;;;;;21.99;30.34;97513.31;4986880;28;1164;-77
2022/09/11 06:58:06;;;;;;;;;;;;;;;21.95;30.23;97518.31;5003249;28;845;-77
2022/09/11 07:00:32;;;;;;;;;;;;;;;21.90;30.05;97521.72;5002790;28;1983;-77
2022/09/11 07:03:01;;;;;;;;;;;;;;;21.71;30.80;97513.06;5002655;28;1167;-77
2022/09/11 07:05:26;;;;;;;;;;;;;;;21.93;30.24;97512.31;5019627;28;960;-77
2022/09/11 07:07:54;;;;;;;;;;;;;;;21.83;30.23;97511.44;5018995;28;1238;-77
2022/09/11 07:10:20;;;;;;;;;;;;;;;21.75;30.36;97522.22;5002542;28;1108;-77
2022/09/11 07:12:54;;;;;;;;;;;;;;;21.79;30.32;97516.44;5002786;28;1227;-76
2022/09/11 07:15:20;;;;;;;;;;;;;;;21.89;30.30;97514.47;5002475;28;1185;-77
2022/09/11 07:17:47;;;;;;;;;;;;;;;21.61;30.89;97511.41;5018285;28;1239;-76
2022/09/11 07:20:13;;;;;;;;;;;;;;;21.78;30.25;97532.63;5002405;28;1951;-77
2022/09/11 07:22:39;;;;;;;;;;;;;;;21.73;29.91;97527.56;5018499;28;1197;-77
2022/09/11 07:25:06;;;;;;;;;;;;;;;21.90;29.94;97533.06;5018806;28;1225;-77
2022/09/11 07:27:32;;;;;;;;;;;;;;;21.74;30.17;97520.63;5002261;28;1068;-76
2022/09/11 07:29:59;;;;;;;;;;;;;;;21.92;30.08;97519.25;5002316;28;1108;-77
2022/09/11 07:32:25;;;;;;;;;;;;;;;22.43;30.56;97533.19;5019713;28;1068;-77
2022/09/11 07:34:51;;;;;;;;;;;;;;;22.55;29.92;97538.00;5018312;28;1431;-76
2022/09/11 07:37:17;;;;;;;;;;;;;;;22.42;29.84;97540.09;5002061;28;1238;-77
2022/09/11 07:39:43;;;;;;;;;;;;;;;22.27;30.20;97532.13;5016918;28;1898;-77
2022/09/11 07:42:16;;;;;;;;;;;;;;;21.81;30.61;97543.06;5016934;28;1250;-77
2022/09/11 07:44:42;;;;;;;;;;;;;;;22.10;30.34;97542.03;5017146;28;1195;-76
2022/09/11 07:47:08;;;;;;;;;;;;;;;21.99;30.29;97541.63;4997646;28;1112;-77
2022/09/11 07:49:39;;;;;;;;;;;;;;;22.02;30.06;97546.38;5015157;28;989;-77
2022/09/11 07:52:06;;;;;;;;;;;;;;;21.94;30.13;97543.00;5000418;28;1517;-77
2022/09/11 07:54:39;;;;;;;;;;;;;;;21.88;30.04;97552.56;5017078;28;1346;-77
2022/09/11 07:57:05;;;;;;;;;;;;;;;21.86;30.05;97544.50;5016726;28;1362;-77
2022/09/11 07:59:31;;;;;;;;;;;;;;;22.05;30.11;97553.97;5017333;28;928;-77
2022/09/11 08:01:58;;;;;;;;;;;;;;;21.84;30.47;97547.78;5000379;28;1910;-77
2022/09/11 08:04:24;;;;;;;;;;;;;;;21.77;30.55;97544.44;5000524;28;1167;-77
2022/09/11 08:06:50;;;;;;;;;;;;;;;21.78;30.23;97543.97;5000391;28;1091;-77
2022/09/11 08:09:20;;;;;;;;;;;;;;;21.87;30.06;97536.81;5000416;28;1116;-77
2022/09/11 08:11:54;;;;;;;;;;;;;;;21.88;30.23;97544.06;4986226;28;1132;-77
2022/09/11 08:14:21;;;;;;;;;;;;;;;21.82;30.31;97541.81;5017530;28;961;-77
2022/09/11 08:16:48;;;;;;;;;;;;;;;21.83;30.18;97537.72;5002004;28;1085;-77
2022/09/11 08:19:18;;;;;;;;;;;;;;;21.82;30.04;97543.84;5017413;28;1293;-76
2022/09/11 08:21:47;;;;;;;;;;;;;;;22.04;30.91;97543.88;5001975;28;1983;-76
2022/09/11 08:24:13;;;;;;;;;;;;;;;22.40;30.47;97536.94;5001018;28;1235;-76
2022/09/11 08:26:39;;;;;;;;;;;;;;;22.36;30.05;97540.69;5001229;28;1292;-77
2022/09/11 08:29:05;;;;;;;;;;;;;;;22.12;30.66;97544.44;5018543;28;835;-77
2022/09/11 08:31:32;;;;;;;;;;;;;;;21.92;30.90;97544.72;5017594;28;1234;-77
2022/09/11 08:33:58;;;;;;;;;;;;;;;21.88;30.69;97544.06;5000341;28;1240;-77
2022/09/11 08:36:25;;;;;;;;;;;;;;;22.04;30.52;97530.50;4977109;28;1096;-77
2022/09/11 08:38:51;;;;;;;;;;;;;;;22.01;30.23;97519.28;4976999;28;1128;-77
2022/09/11 08:41:27;;;;;;;;;;;;;;;21.93;30.35;97532.16;4960687;28;1986;-77
2022/09/11 08:43:55;;;;;;;;;;;;;;;21.82;30.41;97521.97;4961110;28;1124;-77
2022/09/11 08:46:22;;;;;;;;;;;;;;;21.89;30.26;97514.47;4922778;29;1109;-77
2022/09/11 08:48:59;;;;;;;;;;;;;;;21.92;30.28;97520.03;4922574;29;1197;-77
2022/09/11 08:51:27;;;;;;;;;;;;;;;21.85;30.29;97504.06;4922580;29;1193;-77
2022/09/11 08:53:55;;;;;;;;;;;;;;;21.83;30.65;97506.56;4937981;29;1054;-77
2022/09/11 08:56:22;;;;;;;;;;;;;;;21.77;30.60;97497.06;4922446;29;977;-77
2022/09/11 08:59:03;;;;;;;;;;;;;;;21.79;30.61;97500.22;4903009;29;1363;-77
2022/09/11 09:01:38;;;;;;;;;;;;;;;21.75;30.43;97504.44;4902977;29;1910;-77
2022/09/11 09:04:09;;;;;;;;;;;;;;;21.85;30.73;97506.09;4902984;29;811;-77
2022/09/11 09:06:44;;;;;;;;;;;;;;;21.88;30.36;97491.03;4906642;29;1326;-76
2022/09/11 09:09:23;;;;;;;;;;;;;;;21.87;30.72;97500.00;4921536;29;1208;-77
2022/09/11 09:11:54;;;;;;;;;;;;;;;21.72;30.91;97494.03;4921503;29;1229;-77
2022/09/11 09:14:38;;;;;;;;;;;;;;;21.83;30.33;97495.25;4921808;29;1146;-77
2022/09/11 09:17:06;;;;;;;;;;;;;;;21.81;30.35;97497.75;4929254;29;1158;-77
2022/09/11 09:19:37;;;;;;;;;;;;;;;21.81;30.59;97496.94;4925253;29;1471;-76
2022/09/11 09:22:15;;;;;;;;;;;;;;;21.94;30.12;97494.06;4940643;29;1911;-76
2022/09/11 09:24:47;;;;;;;;;;;;;;;21.78;30.27;97498.66;4940738;29;1063;-77
2022/09/11 09:27:14;;;;;;;;;;;;;;;21.77;30.55;97496.28;4933965;28;1338;-77
2022/09/11 09:29:40;;;;;;;;;;;;;;;21.87;30.16;97494.34;4977460;28;1350;-76
2022/09/11 09:32:19;;;;;;;;;;;;;;;21.83;30.35;97489.56;4998902;28;1387;-77
2022/09/11 09:34:45;;;;;;;;;;;;;;;21.98;29.96;97494.72;4998858;28;986;-77
2022/09/11 09:37:14;;;;;;;;;;;;;;;21.83;30.58;97492.41;4975711;28;1155;-77
2022/09/11 09:39:40;;;;;;;;;;;;;;;21.70;30.62;97496.53;4975354;28;828;-77
2022/09/11 09:42:17;;;;;;;;;;;;;;;21.83;30.30;97492.41;4927534;28;1899;-76
2022/09/11 09:44:46;;;;;;;;;;;;;;;21.75;30.42;97499.56;4958841;28;1563;-76
2022/09/11 09:47:12;;;;;;;;;;;;;;;21.83;30.40;97488.78;4975620;28;925;-77
2022/09/11 09:49:37;;;;;;;;;;;;;;;21.84;30.25;97496.81;4959357;28;1112;-77
2022/09/11 09:52:13;;;;;;;;;;;;;;;22.02;29.77;97498.22;4975075;28;1272;-76
2022/09/11 09:54:38;;;;;;;;;;;;;;;21.84;30.30;97488.31;4975580;28;923;-76
2022/09/11 09:57:04;;;;;;;;;;;;;;;21.94;30.24;97491.22;4975706;28;1038;-77
2022/09/11 09:59:34;;;;;;;;;;;;;;;21.78;30.27;97495.81;4975352;28;995;-77
2022/09/11 10:01:59;;;;;;;;;;;;;;;21.81;30.18;97491.28;4959041;28;1902;-77
2022/09/11 10:04:26;;;;;;;;;;;;;;;21.90;30.12;97487.72;4975041;28;955;-76
2022/09/11 10:06:52;;;;;;;;;;;;;;;21.93;30.20;97492.50;4975069;28;925;-76
2022/09/11 10:09:21;;;;;;;;;;;;;;;21.73;30.57;97482.25;4998186;28;882;-76
2022/09/11 10:11:50;;;;;;;;;;;;;;;21.97;30.12;97487.50;4998785;28;1032;-76
2022/09/11 10:14:19;;;;;;;;;;;;;;;21.82;30.34;97476.66;4975171;28;874;-76
2022/09/11 10:16:48;;;;;;;;;;;;;;;21.93;30.04;97481.16;4930611;29;1651;-76
2022/09/11 10:19:32;;;;;;;;;;;;;;;21.99;29.92;97479.31;4939845;29;920;-76
2022/09/11 10:22:12;;;;;;;;;;;;;;;21.79;30.02;97474.75;4940223;29;1923;-76
2022/09/11 10:24:40;;;;;;;;;;;;;;;21.82;30.15;97473.06;4939556;29;910;-78
2022/09/11 10:27:08;;;;;;;;;;;;;;;21.78;30.36;97473.16;4939780;29;902;-77
2022/09/11 10:29:34;;;;;;;;;;;;;;;21.91;30.04;97466.66;4939992;29;924;-76
2022/09/11 10:32:02;;;;;;;;;;;;;;;21.88;30.19;97478.91;4955596;29;914;-77
2022/09/11 10:34:33;;;;;;;;;;;;;;;22.05;29.71;97468.97;4940135;29;993;-79
2022/09/11 10:37:01;;;;;;;;;;;;;;;22.00;29.59;97469.56;4936959;29;859;-77
2022/09/11 10:39:28;;;;;;;;;;;;;;;21.92;29.83;97465.41;4952220;29;901;-76
2022/09/11 10:41:53;;;;;;;;;;;;;;;22.08;29.46;97466.00;4939853;29;1910;-77
2022/09/11 10:44:20;;;;;;;;;;;;;;;21.81;29.83;97458.09;4962776;28;966;-77
2022/09/11 10:46:47;;;;;;;;;;;;;;;21.91;29.73;97460.97;4998623;28;913;-76
2022/09/11 10:49:13;;;;;;;;;;;;;;;21.98;29.80;97461.53;4998848;28;1001;-76
2022/09/11 10:51:39;;;;;;;;;;;;;;;21.93;29.52;97462.13;5030108;28;1574;-77
2022/09/11 10:54:14;;;;;;;;;;;;;;;21.97;29.66;97448.63;5018209;28;779;-77
2022/09/11 10:56:54;;;;;;;;;;;;;;;21.98;29.58;97443.75;5036910;28;790;-77
2022/09/11 10:59:21;;;;;;;;;;;;;;;21.89;29.87;97452.16;5039214;28;769;-77
2022/09/11 11:01:46;;;;;;;;;;;;;;;21.92;30.00;97448.44;5021366;28;1975;-77
2022/09/11 11:04:12;;;;;;;;;;;;;;;21.82;30.00;97448.34;5021042;28;767;-76
2022/09/11 11:06:45;;;;;;;;;;;;;;;21.78;30.17;97450.50;5016538;28;924;-77
2022/09/11 11:09:16;;;;;;;;;;;;;;;22.02;29.58;97452.88;5000237;28;835;-77
2022/09/11 11:11:45;;;;;;;;;;;;;;;21.96;29.45;97441.34;5017821;28;910;-76
2022/09/11 11:14:28;;;;;;;;;;;;;;;21.82;29.65;97442.69;5017247;28;973;-76
2022/09/11 11:17:13;;;;;;;;;;;;;;;21.86;29.72;97448.19;5017188;28;964;-76
2022/09/11 11:19:50;;;;;;;;;;;;;;;21.88;29.96;97444.94;5017236;28;846;-75
2022/09/11 11:22:48;;;;;;;;;;;;;;;21.86;29.96;97456.69;5017142;28;1083;-76
2022/09/11 11:25:40;;;;;;;;;;;;;;;21.92;29.64;97445.59;4939421;29;1005;-76
2022/09/11 11:28:17;;;;;;;;;;;;;;;21.83;29.69;97438.59;4882916;29;903;-76
2022/09/11 11:30:57;;;;;;;;;;;;;;;21.82;29.83;97441.91;4883370;29;923;-76
2022/09/11 11:33:23;;;;;;;;;;;;;;;21.73;30.21;97438.97;4882547;29;964;-76
2022/09/11 11:36:06;;;;;;;;;;;;;;;21.87;29.76;97443.34;4867016;29;1035;-76
2022/09/11 11:38:38;;;;;;;;;;;;;;;21.88;29.65;97447.75;4882787;29;1001;-76
2022/09/11 11:41:43;;;;;;;;;;;;;;;21.96;29.41;97429.22;4882161;29;1915;-76
2022/09/11 11:44:11;;;;;;;;;;;;;;;21.94;29.58;97426.09;4812226;29;936;-75
2022/09/11 11:46:37;;;;;;;;;;;;;;;21.91;29.49;97438.31;4827162;29;1106;-76
2022/09/11 11:49:14;;;;;;;;;;;;;;;21.96;29.42;97438.53;4827354;29;1017;-76
2022/09/11 11:51:47;;;;;;;;;;;;;;;21.96;29.65;97429.22;4826813;29;1370;-76
2022/09/11 11:54:16;;;;;;;;;;;;;;;21.96;29.36;97432.06;4827246;29;903;-76
2022/09/11 11:56:48;;;;;;;;;;;;;;;21.88;29.57;97428.72;4827104;29;1435;-76
2022/09/11 11:59:21;;;;;;;;;;;;;;;21.95;29.63;97430.50;4826975;29;1306;-76
2022/09/11 12:02:05;;;;;;;;;;;;;;;21.96;29.46;97429.22;4843167;29;1987;-76
2022/09/11 12:04:41;;;;;;;;;;;;;;;21.74;29.73;97430.03;4870226;29;966;-76
2022/09/11 12:07:13;;;;;;;;;;;;;;;21.82;29.78;97425.69;4923045;29;1153;-77
2022/09/11 12:09:40;;;;;;;;;;;;;;;21.97;29.62;97419.50;4941763;29;1036;-76
2022/09/11 12:12:05;;;;;;;;;;;;;;;22.14;29.27;97423.72;4942070;29;1005;-77
2022/09/11 12:14:33;;;;;;;;;;;;;;;22.10;29.21;97411.72;4962456;28;935;-76
2022/09/11 12:17:16;;;;;;;;;;;;;;;21.92;29.55;97412.41;5000336;28;939;-76
2022/09/11 12:20:02;;;;;;;;;;;;;;;21.96;29.75;97412.25;5016322;28;940;-77
2022/09/11 12:22:32;;;;;;;;;;;;;;;22.07;29.33;97409.78;5024707;28;867;-76
2022/09/11 12:24:58;;;;;;;;;;;;;;;21.97;29.55;97408.19;5020803;28;943;-76
2022/09/11 12:27:31;;;;;;;;;;;;;;;22.00;29.45;97398.75;5038250;28;850;-76
2022/09/11 12:29:57;;;;;;;;;;;;;;;21.92;29.50;97418.06;5037772;28;1085;-76
2022/09/11 12:32:24;;;;;;;;;;;;;;;22.03;29.50;97415.59;5034950;28;860;-77
2022/09/11 12:34:53;;;;;;;;;;;;;;;22.02;29.26;97416.06;5037813;28;909;-76
2022/09/11 12:37:37;;;;;;;;;;;;;;;21.96;29.42;97410.19;5038120;28;1083;-76
2022/09/11 12:40:15;;;;;;;;;;;;;;;21.92;29.41;97415.22;5020086;28;1887;-76
2022/09/11 12:42:41;;;;;;;;;;;;;;;21.87;29.84;97415.81;5021092;28;921;-76
2022/09/11 12:45:25;;;;;;;;;;;;;;;21.93;29.73;97413.19;5037401;28;841;-76
2022/09/11 12:47:50;;;;;;;;;;;;;;;21.91;29.44;97413.63;5037335;28;929;-77
2022/09/11 12:50:20;;;;;;;;;;;;;;;22.11;29.14;97401.97;5037255;28;1089;-76
2022/09/11 12:52:46;;;;;;;;;;;;;;;21.99;29.44;97411.31;5015268;28;905;-76
2022/09/11 12:55:21;;;;;;;;;;;;;;;21.96;29.52;97409.41;4998931;28;1216;-76
2022/09/11 12:57:47;;;;;;;;;;;;;;;21.94;29.56;97397.75;5015457;28;993;-76
2022/09/11 13:00:20;;;;;;;;;;;;;;;21.91;29.42;97404.34;4998958;28;2005;-77
2022/09/11 13:02:46;;;;;;;;;;;;;;;21.95;29.73;97408.63;5015478;28;925;-76
2022/09/11 13:05:34;;;;;;;;;;;;;;;22.03;29.42;97403.50;5012615;28;1089;-76
2022/09/11 13:08:03;;;;;;;;;;;;;;;21.95;29.49;97388.78;4999604;28;1041;-76
2022/09/11 13:10:32;;;;;;;;;;;;;;;21.98;29.59;97398.41;4998995;28;965;-76
2022/09/11 13:13:02;;;;;;;;;;;;;;;22.00;29.61;97398.75;4982971;28;1375;-76